Terminal Aerodrome Forecast
Issued by NWS Sioux Falls, SD

Home | Current Version | Previous Version | Text Only | Print | Product List | Glossary On
Versions: 1 2 3 4 5 6 7 8 9 10 11 12 13 14 15 16 17 18 19 20 21 22
107
FTUS43 KFSD 180318 AAC
TAFFSD
TAF AMD
KFSD 180318Z 1803/1824 17012KT P6SM FEW060 BKN200
     FM180345 35012G25KT P6SM FEW060 BKN100
     FM180530 28012KT P6SM VCTS SCT050CB BKN080
     FM180800 18007KT P6SM SCT100
     FM181300 15007KT P6SM SCT100
     FM182000 07010KT P6SM VCTS OVC050CB=

USA.gov is the U.S. government's official web portal to all federal, state and local government web resources and services.